Time;durP1;ratioP1;P1;durP2;ratioP2;P2;SDS_P1;SDS_P2;PMS_P1;PMS_P2;Temp;Humidity;BMP_temperature;BMP_pressure;BME280_temperature;BME280_humidity;BME280_pressure;Samples;Min_cycle;Max_cycle;Signal;HPM_P1;HPM_P2
2024/01/30 09:03:57;;;;;;;20.07;13.03;;;;;;;1.68;100.00;100334.75;5120416;27;20795;-82
2024/01/30 09:06:26;;;;;;;20.70;14.07;;;;;;;2.44;100.00;100339.63;5100076;28;39440;-82
2024/01/30 09:08:53;;;;;;;18.77;12.97;;;;;;;2.95;100.00;100332.28;5067683;28;41946;-81
2024/01/30 09:11:21;;;;;;;19.47;12.87;;;;;;;3.65;100.00;100360.44;5069671;28;43054;-81
2024/01/30 09:13:48;;;;;;;16.97;11.70;;;;;;;4.07;96.98;100364.34;5087506;28;42570;-82
2024/01/30 09:16:16;;;;;;;17.90;12.23;;;;;;;4.35;94.19;100362.19;5070690;28;40518;-82
2024/01/30 09:18:44;;;;;;;16.47;12.47;;;;;;;4.72;91.24;100374.81;5087978;28;41656;-81
2024/01/30 09:21:13;;;;;;;17.40;12.17;;;;;;;4.79;89.75;100345.84;5070583;28;43085;-80
2024/01/30 09:23:40;;;;;;;19.03;13.00;;;;;;;5.35;87.27;100368.53;5087752;28;42485;-82
2024/01/30 09:26:08;;;;;;;14.80;11.37;;;;;;;5.98;84.76;100389.34;5087838;28;38724;-83
2024/01/30 09:28:36;;;;;;;15.43;10.87;;;;;;;6.18;82.81;100381.06;5087040;28;41008;-83
2024/01/30 09:31:03;;;;;;;19.27;11.77;;;;;;;6.39;81.81;100392.91;5087709;28;42796;-82
2024/01/30 09:33:31;;;;;;;15.03;11.10;;;;;;;6.24;80.48;100356.38;5066443;28;43988;-85
2024/01/30 09:35:58;;;;;;;15.93;10.87;;;;;;;6.57;79.57;100397.75;5050675;28;39628;-81
2024/01/30 09:38:27;;;;;;;14.27;11.50;;;;;;;6.62;78.91;100398.53;5086562;28;40919;-82
2024/01/30 09:40:56;;;;;;;18.17;11.70;;;;;;;6.58;77.64;100388.97;5085517;28;41790;-81
2024/01/30 09:43:24;;;;;;;16.27;11.77;;;;;;;6.78;76.55;100405.22;5085562;28;41049;-83
2024/01/30 09:45:54;;;;;;;16.30;11.80;;;;;;;6.93;75.44;100411.00;5086285;28;40448;-82
2024/01/30 09:48:23;;;;;;;15.97;12.03;;;;;;;7.05;74.61;100405.44;5086811;28;42338;-82
2024/01/30 09:50:51;;;;;;;16.03;11.90;;;;;;;7.25;75.04;100413.75;5069052;28;44370;-81
2024/01/30 09:53:20;;;;;;;14.10;10.93;;;;;;;7.42;74.33;100415.97;5068340;28;43652;-83
2024/01/30 09:55:51;;;;;;;15.87;12.13;;;;;;;7.62;73.56;100413.72;5085362;28;40213;-83
2024/01/30 09:58:19;;;;;;;19.03;12.07;;;;;;;7.78;72.30;100422.09;5085875;28;40615;-84
2024/01/30 10:00:47;;;;;;;15.00;12.70;;;;;;;7.91;71.13;100416.44;5068925;28;41744;-82
2024/01/30 10:03:15;;;;;;;15.37;11.03;;;;;;;8.11;70.95;100415.91;5067847;28;41293;-83
2024/01/30 10:05:47;;;;;;;15.97;11.53;;;;;;;8.10;70.38;100385.16;5086415;28;39920;-83
2024/01/30 10:08:19;;;;;;;15.90;10.70;;;;;;;8.58;69.77;100426.94;5070001;28;40776;-83
2024/01/30 10:10:47;;;;;;;15.73;11.37;;;;;;;8.61;69.08;100409.22;5070304;28;42782;-86
2024/01/30 10:13:17;;;;;;;15.87;11.67;;;;;;;8.77;68.02;100414.91;5067505;28;41497;-86
2024/01/30 10:15:45;;;;;;;13.83;10.80;;;;;;;8.97;67.26;100424.88;5056175;28;39134;-87
2024/01/30 10:18:12;;;;;;;12.60;10.70;;;;;;;9.10;66.04;100412.13;5056550;28;42066;-87
2024/01/30 10:20:40;;;;;;;14.23;11.07;;;;;;;9.36;65.36;100420.09;5056495;28;43170;-86
2024/01/30 10:23:08;;;;;;;15.60;10.93;;;;;;;9.56;64.61;100438.81;5056334;28;41270;-87
2024/01/30 10:25:36;;;;;;;17.00;11.10;;;;;;;9.77;62.77;100442.50;5056041;28;41201;-85
2024/01/30 10:28:04;;;;;;;14.60;11.70;;;;;;;9.87;61.86;100428.06;5073431;28;43372;-88
2024/01/30 10:30:33;;;;;;;18.53;11.80;;;;;;;10.23;61.34;100428.59;5056161;28;44349;-89
2024/01/30 10:33:00;;;;;;;14.27;11.57;;;;;;;10.46;59.55;100421.59;5056275;28;41394;-87
2024/01/30 10:35:28;;;;;;;14.73;11.07;;;;;;;10.80;59.44;100437.94;5037336;28;39385;-87
2024/01/30 10:37:58;;;;;;;16.00;11.97;;;;;;;11.09;58.79;100429.72;5055015;28;40931;-87
2024/01/30 10:40:29;;;;;;;15.17;11.70;;;;;;;11.34;57.96;100420.78;5054711;28;41906;-86
2024/01/30 10:42:57;;;;;;;15.73;12.43;;;;;;;11.69;56.20;100429.94;5055228;28;41057;-87
2024/01/30 10:45:28;;;;;;;15.40;11.60;;;;;;;11.93;56.24;100436.03;5058743;28;39378;-85
2024/01/30 10:47:58;;;;;;;13.20;11.57;;;;;;;11.96;55.96;100417.31;5071755;28;41446;-87
2024/01/30 10:50:26;;;;;;;14.90;12.07;;;;;;;12.00;55.57;100414.44;5054731;28;43039;-86
2024/01/30 10:52:55;;;;;;;16.70;12.13;;;;;;;12.03;55.46;100408.16;5055081;28;41386;-86
2024/01/30 10:55:24;;;;;;;14.13;11.37;;;;;;;12.10;54.58;100409.63;5054981;28;38862;-88
2024/01/30 10:57:53;;;;;;;14.47;11.30;;;;;;;12.17;53.80;100416.38;5054629;28;42114;-87
2024/01/30 11:00:23;;;;;;;13.13;10.97;;;;;;;12.35;53.78;100410.25;5054442;28;42955;-91
2024/01/30 11:02:51;;;;;;;14.37;11.27;;;;;;;12.81;52.59;100409.00;5053749;28;41288;-90
2024/01/30 11:05:26;;;;;;;14.40;9.93;;;;;;;13.71;51.37;100412.63;5055466;28;40555;-89
2024/01/30 11:07:54;;;;;;;15.60;10.37;;;;;;;14.37;49.69;100412.69;5055596;28;42423;-90
2024/01/30 11:10:25;;;;;;;13.60;10.40;;;;;;;14.81;48.28;100422.81;5055432;28;43859;-90
2024/01/30 11:12:53;;;;;;;11.77;10.10;;;;;;;14.77;48.37;100405.25;5055951;28;41322;-86
2024/01/30 11:15:21;;;;;;;14.07;10.97;;;;;;;14.67;48.35;100408.44;5055469;28;42015;-88
2024/01/30 11:17:52;;;;;;;11.37;9.93;;;;;;;14.55;48.19;100427.75;5055310;28;40929;-88
2024/01/30 11:20:26;;;;;;;12.63;10.13;;;;;;;14.33;48.70;100416.50;5055414;28;41948;-89
2024/01/30 11:22:57;;;;;;;12.60;10.93;;;;;;;13.82;48.93;100373.00;5055880;28;41113;-88
2024/01/30 11:25:26;;;;;;;12.70;10.47;;;;;;;13.74;49.39;100396.47;5054637;28;40131;-88
2024/01/30 11:27:55;;;;;;;11.77;10.03;;;;;;;13.54;49.96;100389.50;5055238;28;42723;-91
2024/01/30 11:30:24;;;;;;;11.33;10.13;;;;;;;13.22;49.50;100367.16;5055424;28;44552;-86
2024/01/30 11:33:02;;;;;;;12.47;10.43;;;;;;;13.21;50.39;100381.41;5072212;28;42382;-89
2024/01/30 11:35:33;;;;;;;13.93;10.23;;;;;;;13.22;50.78;100391.09;5053318;28;39039;-87
2024/01/30 11:38:04;;;;;;;12.90;10.00;;;;;;;13.22;50.85;100383.13;5053586;28;40805;-88
2024/01/30 11:40:39;;;;;;;11.83;9.50;;;;;;;13.20;50.77;100374.34;5054471;28;43365;-88
2024/01/30 11:43:08;;;;;;;10.70;9.37;;;;;;;13.34;51.11;100367.50;5053642;28;41365;-89
2024/01/30 11:45:37;;;;;;;14.07;10.43;;;;;;;13.50;50.59;100365.75;5054393;28;40831;-89
2024/01/30 11:48:07;;;;;;;11.50;9.50;;;;;;;13.92;50.04;100382.22;5054133;28;40697;-90
2024/01/30 11:50:35;;;;;;;12.83;10.23;;;;;;;14.89;48.50;100393.91;5054119;28;43152;-86
2024/01/30 11:53:05;;;;;;;14.60;10.70;;;;;;;15.56;46.48;100406.13;5053596;28;41634;-87
2024/01/30 11:55:35;;;;;;;14.10;10.77;;;;;;;16.24;45.75;100383.25;5054007;28;39980;-87
2024/01/30 11:58:04;;;;;;;12.23;10.63;;;;;;;16.67;44.51;100381.50;5053882;28;42322;-89
2024/01/30 12:00:33;;;;;;;14.33;10.63;;;;;;;17.50;43.62;100396.56;5054080;28;41518;-91
2024/01/30 12:03:01;;;;;;;13.90;10.17;;;;;;;18.16;42.71;100402.84;5052867;28;42207;-91
2024/01/30 12:05:29;;;;;;;11.83;10.20;;;;;;;18.56;41.28;100400.91;5054761;28;40162;-90
2024/01/30 12:07:58;;;;;;;14.83;11.77;;;;;;;18.79;40.91;100412.72;5054345;28;42309;-88
2024/01/30 12:10:28;;;;;;;11.63;10.37;;;;;;;19.07;40.78;100404.38;5055243;28;42385;-90
2024/01/30 12:12:56;;;;;;;12.97;11.23;;;;;;;19.15;40.13;100398.47;5054334;28;41055;-90
2024/01/30 12:15:26;;;;;;;14.20;10.53;;;;;;;18.84;39.95;100389.09;5054876;28;41433;-89
2024/01/30 12:17:53;;;;;;;14.43;10.70;;;;;;;18.34;41.04;100384.59;5054382;28;43227;-89
2024/01/30 12:20:21;;;;;;;10.70;9.60;;;;;;;17.59;41.67;100366.47;5054746;28;43235;-92
2024/01/30 12:22:50;;;;;;;14.30;10.60;;;;;;;17.11;42.21;100375.09;5054321;28;41944;-91
2024/01/30 12:25:19;;;;;;;14.07;11.60;;;;;;;16.52;43.39;100351.19;5054580;28;39375;-92
2024/01/30 12:27:51;;;;;;;14.60;10.50;;;;;;;16.27;43.96;100352.81;5053960;28;40652;-89
2024/01/30 12:30:20;;;;;;;12.50;10.93;;;;;;;16.39;44.10;100365.41;5054744;28;44426;-89
2024/01/30 12:32:50;;;;;;;15.33;11.23;;;;;;;16.78;44.13;100370.09;5054216;28;42693;-90
2024/01/30 12:35:20;;;;;;;14.97;11.70;;;;;;;17.54;43.34;100367.75;5054906;28;38626;-89
2024/01/30 12:37:49;;;;;;;16.07;11.30;;;;;;;17.97;42.68;100360.34;5053612;28;40238;-91
2024/01/30 12:40:18;;;;;;;15.00;10.80;;;;;;;18.82;41.35;100370.41;5054097;28;43396;-89
2024/01/30 12:42:49;;;;;;;13.63;10.37;;;;;;;19.73;40.22;100368.97;5071135;28;41268;-90
2024/01/30 12:45:20;;;;;;;13.40;10.30;;;;;;;20.94;38.55;100376.44;5054685;28;40339;-90
2024/01/30 12:47:47;;;;;;;15.10;10.40;;;;;;;22.06;36.38;100381.47;5053659;28;40837;-90
2024/01/30 12:50:15;;;;;;;13.50;9.87;;;;;;;22.87;35.34;100376.09;5054006;28;41708;-91
2024/01/30 12:52:44;;;;;;;13.53;11.10;;;;;;;23.09;35.09;100391.25;5054231;28;41310;-93
2024/01/30 12:55:11;;;;;;;12.10;10.63;;;;;;;23.23;34.34;100371.94;5053765;28;40390;-89
2024/01/30 12:57:39;;;;;;;13.07;10.90;;;;;;;22.80;34.29;100344.38;5055399;28;42410;-91
2024/01/30 13:00:09;;;;;;;14.90;10.90;;;;;;;22.74;35.28;100358.41;5053836;28;43753;-90
2024/01/30 13:02:38;;;;;;;12.20;10.17;;;;;;;22.18;35.43;100372.31;5053704;28;43364;-91
2024/01/30 13:05:05;;;;;;;11.37;10.07;;;;;;;21.26;36.28;100343.34;5053943;28;39275;-90
2024/01/30 13:07:33;;;;;;;10.50;9.30;;;;;;;20.54;36.95;100356.41;5052300;28;40697;-92
2024/01/30 13:10:03;;;;;;;13.47;10.23;;;;;;;19.70;37.86;100338.78;5052628;28;43327;-89
2024/01/30 13:12:33;;;;;;;12.30;10.27;;;;;;;18.96;38.71;100329.97;5067444;28;42486;-90
2024/01/30 13:15:03;;;;;;;13.53;9.83;;;;;;;18.34;39.58;100320.22;5052956;28;39122;-92
2024/01/30 13:17:34;;;;;;;11.80;10.47;;;;;;;17.88;40.33;100318.09;5053157;28;42885;-90
2024/01/30 13:20:02;;;;;;;12.87;10.40;;;;;;;17.43;40.99;100306.84;5052322;28;41890;-87
2024/01/30 13:22:30;;;;;;;13.80;10.77;;;;;;;17.05;41.11;100316.63;5048944;28;43251;-87
2024/01/30 13:24:58;;;;;;;13.17;10.17;;;;;;;16.76;41.99;100330.06;5049560;28;38718;-86
2024/01/30 13:27:26;;;;;;;13.37;10.83;;;;;;;16.40;42.61;100316.34;5069235;28;41994;-88
2024/01/30 13:29:53;;;;;;;12.67;9.93;;;;;;;16.09;43.58;100304.88;5052561;28;42033;-89
2024/01/30 13:32:21;;;;;;;12.10;10.37;;;;;;;15.84;44.13;100299.31;5048293;28;43480;-89
2024/01/30 13:34:50;;;;;;;13.03;10.33;;;;;;;15.66;44.53;100305.81;5080488;28;39910;-89
2024/01/30 13:37:18;;;;;;;14.13;10.83;;;;;;;15.43;44.79;100307.16;5050770;28;41844;-89
2024/01/30 13:39:45;;;;;;;12.67;10.40;;;;;;;15.11;45.23;100287.66;5050479;28;43165;-88
2024/01/30 13:42:12;;;;;;;14.20;10.33;;;;;;;14.96;45.72;100293.91;5046618;28;41983;-89
2024/01/30 13:44:40;;;;;;;11.07;9.40;;;;;;;14.76;46.24;100280.84;5043218;28;39767;-87
2024/01/30 13:47:08;;;;;;;13.23;10.57;;;;;;;14.66;46.41;100289.38;5051925;28;40772;-88
2024/01/30 13:49:35;;;;;;;12.30;9.37;;;;;;;14.55;46.75;100282.94;5053306;28;42523;-88
2024/01/30 13:52:05;;;;;;;11.27;9.47;;;;;;;14.30;46.82;100254.06;5054017;28;42974;-87
2024/01/30 13:54:33;;;;;;;10.60;8.87;;;;;;;14.33;47.11;100267.25;5054828;28;39692;-90
2024/01/30 13:57:01;;;;;;;11.50;9.03;;;;;;;14.33;47.35;100269.91;5053802;28;40755;-87
2024/01/30 13:59:29;;;;;;;12.47;9.57;;;;;;;14.33;48.02;100270.78;5054814;28;43191;-89
2024/01/30 14:01:56;;;;;;;10.60;8.83;;;;;;;14.38;48.03;100287.34;5049302;28;43498;-87
2024/01/30 14:04:24;;;;;;;12.33;9.57;;;;;;;14.15;47.97;100246.94;5053471;28;41568;-88
2024/01/30 14:06:51;;;;;;;12.87;10.47;;;;;;;14.28;47.89;100275.47;5054422;28;40777;-87
2024/01/30 14:09:21;;;;;;;14.10;10.37;;;;;;;14.38;48.41;100287.34;5038573;28;41535;-88
2024/01/30 14:11:48;;;;;;;11.57;9.80;;;;;;;14.27;48.75;100273.75;5054608;28;41198;-87
2024/01/30 14:14:16;;;;;;;13.07;9.83;;;;;;;14.55;48.51;100289.13;5055854;28;39007;-89
2024/01/30 14:16:43;;;;;;;11.53;9.13;;;;;;;14.55;48.58;100267.78;5053664;28;42607;-89
2024/01/30 14:19:11;;;;;;;11.20;8.83;;;;;;;14.61;48.41;100278.09;5054895;28;44176;-91
2024/01/30 14:21:39;;;;;;;12.87;9.60;;;;;;;14.45;48.51;100285.25;5057787;28;43749;-90
2024/01/30 14:24:06;;;;;;;10.67;8.97;;;;;;;14.34;48.57;100293.78;5057768;28;39569;-92
2024/01/30 14:26:36;;;;;;;12.50;9.40;;;;;;;13.98;48.77;100258.47;5052070;28;43112;-86
2024/01/30 14:29:04;;;;;;;11.23;8.70;;;;;;;14.03;49.07;100297.28;5053766;28;41996;-86
2024/01/30 14:31:31;;;;;;;11.43;9.33;;;;;;;13.79;49.27;100293.25;5052951;28;42354;-89
2024/01/30 14:34:00;;;;;;;12.03;9.37;;;;;;;13.71;49.78;100295.47;5053928;28;39682;-86
2024/01/30 14:36:28;;;;;;;11.37;9.27;;;;;;;13.58;49.81;100294.38;5052582;28;42511;-88
2024/01/30 14:38:56;;;;;;;10.40;8.40;;;;;;;13.35;50.01;100281.41;5068883;28;43749;-88
2024/01/30 14:41:23;;;;;;;10.37;8.77;;;;;;;13.21;50.08;100279.44;5052297;28;41739;-88
2024/01/30 14:43:53;;;;;;;9.30;8.00;;;;;;;13.06;50.68;100262.41;5052124;28;39635;-89
2024/01/30 14:46:21;;;;;;;13.77;8.77;;;;;;;12.94;50.59;100255.03;5052019;28;40866;-86
2024/01/30 14:48:51;;;;;;;9.47;8.47;;;;;;;12.92;50.85;100280.84;5069160;28;43520;-85
2024/01/30 14:51:20;;;;;;;10.67;8.10;;;;;;;12.73;51.35;100267.63;5052949;28;42347;-87
2024/01/30 14:53:48;;;;;;;10.03;7.83;;;;;;;12.59;51.69;100264.75;5052033;28;40036;-89
2024/01/30 14:56:16;;;;;;;9.57;7.70;;;;;;;12.31;51.96;100246.59;5069019;28;42034;-88
2024/01/30 14:58:44;;;;;;;10.87;9.10;;;;;;;12.39;52.58;100280.78;5052217;28;41540;-86
2024/01/30 15:01:13;;;;;;;10.83;9.00;;;;;;;12.29;52.69;100298.94;5052125;28;43620;-87
2024/01/30 15:03:42;;;;;;;12.50;9.77;;;;;;;12.05;52.96;100273.53;5051428;28;40135;-87
2024/01/30 15:06:10;;;;;;;15.30;10.40;;;;;;;11.86;53.61;100271.72;5071859;28;43181;-86
2024/01/30 15:08:37;;;;;;;12.83;9.37;;;;;;;11.77;53.49;100272.09;5053536;28;43553;-87
2024/01/30 15:11:05;;;;;;;14.53;10.57;;;;;;;11.68;53.58;100274.28;5053930;28;42196;-87
2024/01/30 15:13:32;;;;;;;12.13;9.83;;;;;;;11.48;53.83;100240.69;5070339;28;42436;-87
2024/01/30 15:16:03;;;;;;;12.57;9.60;;;;;;;11.60;54.13;100287.91;5053681;28;40673;-86
2024/01/30 15:18:32;;;;;;;13.70;9.80;;;;;;;11.46;54.21;100274.38;5053120;28;42835;-86
2024/01/30 15:21:00;;;;;;;12.20;9.00;;;;;;;11.22;54.08;100249.78;5054129;28;42251;-86
2024/01/30 15:23:27;;;;;;;14.50;9.67;;;;;;;11.04;54.53;100230.19;5053463;28;38910;-85
2024/01/30 15:25:55;;;;;;;13.10;9.23;;;;;;;11.14;54.55;100271.28;5050987;28;41799;-86
2024/01/30 15:28:35;;;;;;;11.17;9.43;;;;;;;11.05;54.44;100263.72;5051028;28;44588;-86
2024/01/30 15:31:03;;;;;;;11.80;8.90;;;;;;;10.94;54.87;100259.81;5052401;28;41052;-85
2024/01/30 15:33:32;;;;;;;12.83;8.30;;;;;;;10.93;55.31;100280.16;5051472;28;40803;-86
2024/01/30 15:36:01;;;;;;;13.13;8.77;;;;;;;10.73;55.31;100265.06;5051251;28;43421;-86
2024/01/30 15:38:30;;;;;;;10.00;8.67;;;;;;;10.63;55.54;100257.56;5051534;28;43258;-86
2024/01/30 15:40:58;;;;;;;13.17;8.77;;;;;;;10.64;55.80;100281.31;5051452;28;42257;-85
2024/01/30 15:43:27;;;;;;;14.13;9.73;;;;;;;10.43;55.69;100269.81;5051126;28;39099;-86
2024/01/30 15:45:57;;;;;;;13.20;10.03;;;;;;;10.38;56.11;100271.78;5051431;28;40756;-85
2024/01/30 15:48:24;;;;;;;11.13;8.93;;;;;;;10.36;56.74;100284.22;5051326;28;42235;-85
2024/01/30 15:50:55;;;;;;;11.83;9.23;;;;;;;10.17;56.56;100269.91;5052268;28;41783;-86
2024/01/30 15:53:26;;;;;;;10.70;8.97;;;;;;;10.21;56.81;100290.09;5052510;28;40796;-86
2024/01/30 15:55:54;;;;;;;15.13;10.80;;;;;;;10.06;56.61;100275.63;5052121;28;41075;-89
2024/01/30 15:58:22;;;;;;;11.93;8.87;;;;;;;9.98;57.39;100276.84;5051675;28;41830;-90
2024/01/30 16:00:50;;;;;;;11.53;9.10;;;;;;;9.90;57.13;100278.88;5049065;28;41519;-86
2024/01/30 16:03:18;;;;;;;16.13;10.70;;;;;;;9.91;57.21;100285.91;5070736;28;41362;-88
2024/01/30 16:05:45;;;;;;;14.07;9.50;;;;;;;9.75;58.01;100282.97;5052753;28;42351;-89
2024/01/30 16:08:15;;;;;;;13.57;10.00;;;;;;;9.42;58.32;100241.84;5052093;28;41402;-89
2024/01/30 16:10:44;;;;;;;12.50;9.43;;;;;;;9.57;58.68;100281.84;5053921;28;41205;-88
2024/01/30 16:13:12;;;;;;;12.33;9.80;;;;;;;9.18;58.52;100219.78;5052709;28;38983;-85
2024/01/30 16:15:42;;;;;;;12.53;9.60;;;;;;;9.43;58.47;100284.09;5070523;28;42468;-88
2024/01/30 16:18:10;;;;;;;12.60;8.60;;;;;;;9.45;58.44;100292.00;5052849;28;42422;-87
2024/01/30 16:20:43;;;;;;;13.07;9.80;;;;;;;9.44;58.54;100291.13;5054220;28;42223;-90
2024/01/30 16:23:16;;;;;;;11.73;8.90;;;;;;;9.21;58.43;100262.84;5054225;28;40466;-86
2024/01/30 16:25:45;;;;;;;14.77;9.27;;;;;;;9.21;58.64;100272.56;5053005;28;40679;-91
2024/01/30 16:28:14;;;;;;;12.97;8.77;;;;;;;9.20;58.70;100286.69;5051958;28;42071;-90
2024/01/30 16:30:42;;;;;;;19.17;12.37;;;;;;;9.24;59.11;100293.59;5053277;28;41593;-91
2024/01/30 16:33:10;;;;;;;15.83;11.67;;;;;;;9.17;59.17;100286.78;5051999;28;38701;-87
2024/01/30 16:35:40;;;;;;;15.87;10.70;;;;;;;9.02;59.00;100273.16;5069433;28;41075;-88
2024/01/30 16:38:08;;;;;;;12.93;9.53;;;;;;;9.00;59.19;100267.09;5051317;28;43147;-89
2024/01/30 16:40:37;;;;;;;14.17;9.87;;;;;;;8.90;59.74;100268.28;5053042;28;42154;-91
2024/01/30 16:43:05;;;;;;;15.40;11.00;;;;;;;8.97;59.73;100301.53;5051807;28;40251;-89
2024/01/30 16:45:33;;;;;;;13.37;10.00;;;;;;;8.93;59.79;100305.19;5053028;28;40609;-89
2024/01/30 16:48:02;;;;;;;18.33;10.50;;;;;;;8.74;59.88;100282.94;5057847;28;41727;-88
2024/01/30 16:50:30;;;;;;;15.57;10.97;;;;;;;8.77;59.66;100298.69;5066051;28;40930;-89
2024/01/30 16:52:58;;;;;;;12.33;9.93;;;;;;;8.56;60.19;100257.09;5063102;28;39471;-90
2024/01/30 16:55:27;;;;;;;14.30;10.13;;;;;;;8.78;60.19;100300.41;5064245;28;41479;-89
2024/01/30 16:57:56;;;;;;;14.37;10.13;;;;;;;8.44;60.37;100247.78;5082737;28;42945;-87
2024/01/30 17:00:24;;;;;;;17.73;10.93;;;;;;;8.43;60.25;100250.47;5067060;28;42678;-89
2024/01/30 17:02:52;;;;;;;10.87;9.07;;;;;;;8.49;60.46;100260.88;5068487;28;39998;-89
2024/01/30 17:05:19;;;;;;;12.67;9.87;;;;;;;8.48;61.69;100259.13;5061480;28;42418;-92
2024/01/30 17:07:48;;;;;;;14.00;10.00;;;;;;;8.61;62.01;100289.53;5051580;28;44937;-87
2024/01/30 17:10:17;;;;;;;13.67;10.00;;;;;;;8.52;61.41;100276.63;5050284;28;42895;-88
2024/01/30 17:12:45;;;;;;;15.03;10.73;;;;;;;8.50;61.89;100278.44;5064456;28;40788;-89
2024/01/30 17:15:16;;;;;;;14.57;10.60;;;;;;;8.60;61.56;100295.72;5054492;28;40668;-89
2024/01/30 17:17:44;;;;;;;14.07;9.83;;;;;;;8.50;61.72;100281.06;5054342;28;42120;-87
2024/01/30 17:20:12;;;;;;;19.00;11.47;;;;;;;8.45;61.66;100280.34;5054364;28;42191;-87
2024/01/30 17:22:40;;;;;;;13.80;10.03;;;;;;;8.43;61.50;100282.16;5054238;28;40272;-88
2024/01/30 17:25:08;;;;;;;12.43;8.60;;;;;;;8.44;61.64;100291.81;5056617;28;41192;-88
2024/01/30 17:27:36;;;;;;;16.23;10.33;;;;;;;8.43;61.36;100298.00;5057818;28;42060;-88
2024/01/30 17:30:04;;;;;;;11.57;8.83;;;;;;;8.12;61.94;100256.69;5057720;28;41654;-88
2024/01/30 17:32:34;;;;;;;14.83;10.83;;;;;;;8.47;62.20;100315.50;5073612;28;40457;-89
2024/01/30 17:35:02;;;;;;;12.40;9.77;;;;;;;8.33;62.15;100297.44;5056384;28;41202;-88
2024/01/30 17:37:30;;;;;;;13.27;9.90;;;;;;;8.43;61.88;100324.41;5056399;28;43374;-88
2024/01/30 17:39:58;;;;;;;14.87;10.03;;;;;;;8.33;62.16;100309.75;5056445;28;41251;-88
2024/01/30 17:42:26;;;;;;;12.90;9.47;;;;;;;8.42;62.22;100322.66;5056747;28;39371;-88
2024/01/30 17:44:53;;;;;;;13.77;10.00;;;;;;;8.40;62.23;100324.50;5056401;28;40846;-88
2024/01/30 17:47:21;;;;;;;16.17;11.07;;;;;;;8.26;62.39;100302.00;5055923;28;42884;-87
2024/01/30 17:49:50;;;;;;;14.93;10.37;;;;;;;8.37;62.49;100327.25;5056060;28;42135;-88
2024/01/30 17:52:18;;;;;;;13.77;9.97;;;;;;;8.26;62.72;100315.19;5056123;28;39342;-88
2024/01/30 17:54:45;;;;;;;11.83;9.77;;;;;;;8.27;62.72;100313.44;5073082;28;42358;-89
2024/01/30 17:57:13;;;;;;;12.50;10.40;;;;;;;8.38;62.85;100326.34;5056024;28;42046;-90
2024/01/30 17:59:41;;;;;;;14.87;9.70;;;;;;;8.27;62.65;100313.44;5056175;28;40929;-88
2024/01/30 18:02:11;;;;;;;13.00;10.17;;;;;;;8.32;62.77;100322.09;5055598;28;38776;-88
2024/01/30 18:04:40;;;;;;;13.30;9.60;;;;;;;8.26;62.74;100312.56;5056010;28;40728;-88
2024/01/30 18:07:09;;;;;;;13.53;9.87;;;;;;;8.34;63.03;100324.69;5040459;28;41673;-87
2024/01/30 18:09:38;;;;;;;17.80;11.73;;;;;;;8.22;63.08;100310.03;5056990;28;40969;-90
2024/01/30 18:12:08;;;;;;;17.40;12.03;;;;;;;8.27;64.30;100324.84;5056885;28;39989;-89
2024/01/30 18:14:36;;;;;;;17.80;12.73;;;;;;;8.16;64.11;100316.34;5073457;28;41978;-88
2024/01/30 18:17:04;;;;;;;15.63;12.43;;;;;;;8.18;64.24;100324.22;5056911;28;41380;-88
2024/01/30 18:19:32;;;;;;;17.73;11.53;;;;;;;8.09;64.03;100314.81;5056813;28;42853;-90
2024/01/30 18:22:00;;;;;;;18.97;13.33;;;;;;;8.11;64.09;100323.56;5057006;28;38593;-88
2024/01/30 18:24:29;;;;;;;14.73;11.00;;;;;;;7.99;64.34;100302.81;5056775;28;41926;-88
2024/01/30 18:26:56;;;;;;;18.23;12.03;;;;;;;8.16;64.02;100332.19;5054673;28;43188;-88
2024/01/30 18:29:25;;;;;;;18.20;11.90;;;;;;;8.12;64.19;100330.56;5056036;28;41663;-89
2024/01/30 18:31:52;;;;;;;15.13;10.00;;;;;;;8.20;64.25;100344.41;5056192;28;39122;-89
2024/01/30 18:34:20;;;;;;;14.77;10.40;;;;;;;8.08;64.40;100323.63;5055085;28;42148;-87
2024/01/30 18:36:48;;;;;;;15.67;10.97;;;;;;;8.21;64.73;100346.13;5056071;28;42451;-88
2024/01/30 18:39:15;;;;;;;17.83;11.10;;;;;;;7.85;64.70;100295.28;5055598;28;41095;-89
2024/01/30 18:41:44;;;;;;;15.80;11.73;;;;;;;7.97;64.80;100315.19;5055628;28;38999;-87
2024/01/30 18:44:12;;;;;;;18.50;12.43;;;;;;;7.96;65.05;100321.34;5055827;28;42491;-88
2024/01/30 18:46:40;;;;;;;14.17;11.00;;;;;;;8.03;65.01;100324.69;5055845;28;42469;-88
2024/01/30 18:49:07;;;;;;;14.70;10.63;;;;;;;8.08;64.94;100344.75;5055300;28;42678;-88
2024/01/30 18:51:35;;;;;;;12.00;10.30;;;;;;;7.98;64.92;100327.47;5056065;28;40112;-87
2024/01/30 18:54:03;;;;;;;16.03;11.97;;;;;;;8.17;65.10;100365.59;5055352;28;40482;-88
2024/01/30 18:56:31;;;;;;;17.93;11.03;;;;;;;8.12;65.28;100356.97;5072110;28;41821;-89
2024/01/30 18:59:00;;;;;;;18.47;11.00;;;;;;;7.72;65.53;100287.75;5055597;28;40823;-89
2024/01/30 19:01:28;;;;;;;17.23;11.30;;;;;;;7.97;65.76;100331.00;5055266;28;41310;-89
2024/01/30 19:03:56;;;;;;;18.23;11.60;;;;;;;7.81;67.07;100300.69;5055122;28;42028;-89
2024/01/30 19:06:23;;;;;;;20.50;13.97;;;;;;;8.05;66.64;100339.56;5056791;28;41708;-87
2024/01/30 19:08:51;;;;;;;20.83;13.10;;;;;;;7.70;66.64;100285.16;5056343;28;41279;-88
2024/01/30 19:11:19;;;;;;;20.23;13.77;;;;;;;8.06;66.48;100332.50;5056230;28;39132;-88
2024/01/30 19:13:47;;;;;;;16.37;12.13;;;;;;;7.93;66.71;100317.03;5056151;28;42007;-87
2024/01/30 19:16:16;;;;;;;18.17;12.43;;;;;;;7.92;66.50;100322.34;5056421;28;43105;-88
2024/01/30 19:18:45;;;;;;;16.37;11.47;;;;;;;7.93;66.76;100330.22;5054295;28;41765;-89
2024/01/30 19:21:13;;;;;;;17.47;11.40;;;;;;;7.98;66.88;100345.06;5055231;28;40831;-87
2024/01/30 19:23:40;;;;;;;15.40;12.27;;;;;;;7.88;67.01;100336.53;5054867;28;41556;-88
2024/01/30 19:26:08;;;;;;;20.23;12.40;;;;;;;7.92;67.17;100348.72;5071828;28;41833;-86
2024/01/30 19:28:36;;;;;;;16.50;10.60;;;;;;;7.89;67.46;100357.59;5071856;28;42587;-86
2024/01/30 19:31:04;;;;;;;16.17;11.67;;;;;;;7.88;67.47;100353.25;5073310;28;40092;-86
2024/01/30 19:33:34;;;;;;;15.73;11.13;;;;;;;7.93;67.53;100364.50;5055343;28;41876;-88
2024/01/30 19:36:01;;;;;;;15.73;11.50;;;;;;;7.88;67.72;100362.94;5055296;28;43226;-89
2024/01/30 19:38:29;;;;;;;15.07;10.60;;;;;;;7.93;68.02;100371.56;5055257;28;42717;-86
2024/01/30 19:40:57;;;;;;;14.10;10.50;;;;;;;7.80;68.24;100351.69;5054739;28;39018;-89
2024/01/30 19:43:25;;;;;;;16.07;11.43;;;;;;;7.87;68.20;100377.03;5055430;28;40467;-87
2024/01/30 19:45:53;;;;;;;17.47;10.80;;;;;;;7.70;68.73;100343.19;5071717;28;42565;-89
2024/01/30 19:48:21;;;;;;;20.13;13.33;;;;;;;7.90;68.91;100387.50;5054130;28;41869;-88
2024/01/30 19:50:50;;;;;;;16.37;13.00;;;;;;;7.78;69.15;100369.38;5055323;28;38843;-88
2024/01/30 19:53:20;;;;;;;21.43;12.73;;;;;;;7.72;69.18;100366.88;5071991;28;41990;-88
2024/01/30 19:55:48;;;;;;;19.33;12.50;;;;;;;7.86;68.94;100389.34;5054880;28;42706;-86
2024/01/30 19:58:16;;;;;;;20.23;13.80;;;;;;;7.75;69.12;100374.72;5055052;28;41295;-87
2024/01/30 20:00:44;;;;;;;17.50;11.47;;;;;;;7.57;69.38;100355.81;5055410;28;38852;-87
2024/01/30 20:03:11;;;;;;;16.10;10.13;;;;;;;7.71;69.24;100381.81;5054032;28;40478;-87
2024/01/30 20:05:39;;;;;;;17.63;12.03;;;;;;;7.76;69.90;100397.53;5055070;28;41767;-87
2024/01/30 20:08:09;;;;;;;14.83;10.77;;;;;;;7.76;69.67;100405.44;5055598;28;40882;-87
2024/01/30 20:10:36;;;;;;;17.50;11.83;;;;;;;7.65;69.94;100391.69;5072287;28;40679;-87
2024/01/30 20:13:04;;;;;;;20.93;13.03;;;;;;;7.67;70.20;100400.41;5055395;28;41919;-87
2024/01/30 20:15:32;;;;;;;19.53;12.77;;;;;;;7.54;70.06;100379.63;5072610;28;43825;-88
2024/01/30 20:17:59;;;;;;;16.07;11.10;;;;;;;7.57;70.04;100392.72;5055532;28;40700;-88
2024/01/30 20:20:27;;;;;;;18.07;12.70;;;;;;;7.66;70.60;100411.88;5055910;28;39223;-87
2024/01/30 20:22:54;;;;;;;15.47;11.23;;;;;;;7.52;70.49;100399.91;5054897;28;40589;-88
2024/01/30 20:25:23;;;;;;;17.33;11.50;;;;;;;7.53;70.83;100408.69;5054936;28;43513;-90